Terminal Aerodrome Forecast
Issued by NWS

Home | Current Version | Previous Version | Graphics & Text | Print | Product List | Glossary On
Versions: 1 2 3 4 5 6 7 8 9 10 11 12 13 14 15
000
FTUS43 KMPX 291700
TAFRNH
TAF
KRNH 291725Z 2918/3018 17008KT P6SM VCSH SCT015 BKN025 BKN050
     FM291900 22005KT P6SM -SHRA VCTS SCT025CB BKN040
      TEMPO 2919/2923 2SM +TSRA BKN020CB
     FM300000 25005KT P6SM VCSH BKN040
     FM300400 VRB04KT 5SM BR SCT010 OVC020
     FM300600 35003KT 2SM BR OVC004
     FM301500 35005KT 6SM BR BKN015=

USA.gov is the U.S. government's official web portal to all federal, state and local government web resources and services.